首页
METAR-TAF:

METAR-TAF

机场 :

代托纳比奇, 佛罗里达州, 美国

纬度: 29-10-38N, 经度: 081-03-36W, 海拔: 10米

当前天气观测

该预报发布于1小时和14分钟前的15:53 UTC
风速5节,风向西南
温度 31°C
湿度 63%
气压 1016 hPa
能見度: 16.1公里
散云层高于3500英尺
散云层高于10000英尺

METAR: KDAB 241553Z 23005KT 10SM SCT035 SCT100 31/23 A3000 RMK AO2 SLP156 T03110233

时间: 13:07 (17:07 UTC)

预报

该预报发布于5小时和43分钟前的11:24 UTC
预报有效从24日的 12点(UTC)到 25日的 12点(UTC)
风速3节,风向南转西南
能見度: 10公里
少量云层高于3000英尺
多云层高于10000英尺
从 24日的 1400点(UTC)
风速6节,风向西南
能見度: 10公里
散云层高于3000英尺
散云层高于12000英尺
散云层高于25000英尺
从 24日的 1800点(UTC)
风速8节,风向东转东南
能見度: 10公里
散云层高于4000英尺, 积雨云.
散云层高于6000英尺
散云层高于25000英尺
附近有雷暴
从 25日的 0000点(UTC)
风速5节,风向
能見度: 10公里
少量云层高于3500英尺
散云层高于5000英尺
多云层高于12000英尺

TAF: KDAB 241124Z 2412/2512 20003KT P6SM FEW030 BKN100 FM241400 23006KT P6SM SCT030 SCT120 SCT250 FM241800 12008KT P6SM VCTS SCT040CB SCT060 SCT250 FM250000 18005KT P6SM FEW035 SCT050 BKN120

超过4000个机场的气象观测和天气预报(METAR&TAF报告)。

可查询的气象台以黄色和红色小点在地图上表示。

将鼠标移到小点上方,可查看气象台名称。

然后点击查看天气观测和预报。

如需切换地图:点击带黑十字的绿色按钮放大地图;点击带横线的绿色按钮缩小地图;或者点击绿色箭头查看邻近地区的地图。


METAR-TAF: